Yunta, Australia
Current Conditions -  °F | °C
As of 8:00 AM on Friday 28 Nov 2014 (Local Time) from YBHI Reporting Station
Clear Clear  
Wind Chill: 73°   Ceiling: Unl
Heat Index: 73°   Visibility: 6mi
Dew Point: 32°   Wind: 8mph
Humidity: 22%   Direction: 130°SE
Pressure: 30.09"   Gusts: NA
Location:  32.58°S, 139.56°E
Report Text: YBHI 272200Z AUTO 13007KT 9999 // NCD 23/M00 Q1019
Loading
Personal Weather Stations






























Interactive Weather Map New forecast layout! Learn more

10-Day Weather Forecast

Advertisements
Track Severe Weather on mobile